Portada
METAR-TAF:

METAR-TAF

Aeroports :

Txità, Rússia

latitud: 52-05N, longitud: 113-29E, altitud: 685 m

Observació

L'informe es va fer fa 12 minuts, a les 02:00 UTC
Vent 14 kt del Est
Temperatura 20°C
Humitat 46%
Pressió 1002 hPa
Visibilitat 10 km o més
Núvols disperses a una alçada de 5000 ft, Cumulonimbus.

METAR: UIAA 210200Z 10007MPS 9999 SCT050CB 20/08 Q1002 R29/CLRD70 NOSIG RMK QFE694/0925

Hora: 11:12 (02:12 UTC)

Pronòstic

L'informe es va fer fa 3 hores i 12 minuts, a les 23:00 UTC
Pronòstic vàlid del 21 a les 00 UTC al 21 a les 24 UTC
Vent 6 kt del Est/Nord-Est amb ràfegues de 16 kt
Visibilitat 10 km o més
Cel ennuvolat a una alçada de 3000 ft, Cumulonimbus.
Temporalment
l' 21 a les 03 UTC al 21 a les 15 UTC
Vent 16 kt del Est/Sud-Est amb ràfegues de 29 kt
Visibilitat: 3100 m
Cel cobert a una alçada de 1400 ft, Cumulonimbus.
tempesta, pluja,

TAF: UIAA 202300Z 2100/2124 06003G08MPS 9999 BKN030CB TEMPO 2103/2115 12008G15MPS 3100 -TSRA OVC014CB

Observacions i pronòstics meteorològics de més de 4000 aeroports (METAR i TAF).

Les estacions disponibles són els punts grocs i vermells al mapa.

Posi el ratolí al punt desitjat per veure el nom de l'estació.

Feu clic per veure les observacions i els pronòstics meteorològics.

Per canviar el mapa: feu clic els botons verds amb una creu de color negre per apropar; al botó verd amb un guió per allunyar la imatge; o en les fletxes verdes per a mapes adjacents.


METAR-TAF: